DAL715 KATL-KDCA
Flight info
| Callsign | DAL715 |
|---|---|
| Flight time | 1h 13m |
| Altitude | 35000 |
| Route | JACCC2 KELLN Q56 KIWII WAVES CAPSS4 |
| Aircraft | B738/M-SDE2E3FGHIRWXY/LB1 |
Departure
| Time | 2026-05-07 00:22 |
|---|---|
| Airport | Hartsfield Jackson Atlanta International Airport (KATL) |
Arrival
| Time | 2026-05-07 01:35 |
|---|---|
| Airport | Ronald Reagan Washington National Airport (KDCA) |
| Time | Latitude | Longitude | Altitude | Speed | Heading |
|---|---|---|---|---|---|
| 2026-05-07 00:08 | 33.63958 | -84.43644 | 1006 ft | 0 kts | 90° |
| 2026-05-07 00:13 | 33.63958 | -84.43652 | 1005 ft | 3 kts | 90° |
| 2026-05-07 00:13 | 33.63958 | -84.43674 | 1005 ft | 3 kts | 90° |
| 2026-05-07 00:13 | 33.63958 | -84.43697 | 1005 ft | 3 kts | 103° |
| 2026-05-07 00:14 | 33.63966 | -84.43717 | 1005 ft | 3 kts | 134° |
| 2026-05-07 00:14 | 33.63977 | -84.43728 | 1005 ft | 0 kts | 160° |
| 2026-05-07 00:15 | 33.63969 | -84.43725 | 1005 ft | 4 kts | 162° |
| 2026-05-07 00:15 | 33.63916 | -84.43721 | 1005 ft | 10 kts | 181° |
| 2026-05-07 00:15 | 33.63844 | -84.43722 | 1005 ft | 10 kts | 181° |
| 2026-05-07 00:16 | 33.63787 | -84.43723 | 1005 ft | 7 kts | 180° |
| 2026-05-07 00:16 | 33.63741 | -84.43723 | 1005 ft | 7 kts | 180° |
| 2026-05-07 00:16 | 33.63685 | -84.43715 | 1005 ft | 11 kts | 150° |
| 2026-05-07 00:16 | 33.63663 | -84.43600 | 1005 ft | 18 kts | 89° |
| 2026-05-07 00:17 | 33.63664 | -84.43439 | 1005 ft | 20 kts | 90° |
| 2026-05-07 00:17 | 33.63665 | -84.43276 | 1005 ft | 19 kts | 89° |
| 2026-05-07 00:17 | 33.63663 | -84.43118 | 1005 ft | 19 kts | 90° |
| 2026-05-07 00:17 | 33.63663 | -84.42966 | 1005 ft | 18 kts | 90° |
| 2026-05-07 00:18 | 33.63664 | -84.42809 | 1005 ft | 20 kts | 90° |
| 2026-05-07 00:18 | 33.63654 | -84.42641 | 1006 ft | 20 kts | 91° |
| 2026-05-07 00:18 | 33.63652 | -84.42476 | 1006 ft | 19 kts | 88° |
| 2026-05-07 00:18 | 33.63655 | -84.42316 | 1006 ft | 19 kts | 90° |
| 2026-05-07 00:19 | 33.63637 | -84.42166 | 1006 ft | 18 kts | 120° |
| 2026-05-07 00:19 | 33.63583 | -84.42031 | 1006 ft | 19 kts | 97° |
| 2026-05-07 00:19 | 33.63581 | -84.41865 | 1005 ft | 21 kts | 91° |
| 2026-05-07 00:19 | 33.63580 | -84.41683 | 1005 ft | 22 kts | 89° |
| 2026-05-07 00:20 | 33.63581 | -84.41505 | 1005 ft | 21 kts | 91° |
| 2026-05-07 00:20 | 33.63580 | -84.41347 | 1004 ft | 18 kts | 90° |
| 2026-05-07 00:20 | 33.63581 | -84.41196 | 1005 ft | 18 kts | 89° |
| 2026-05-07 00:20 | 33.63582 | -84.41050 | 1005 ft | 17 kts | 90° |
| 2026-05-07 00:21 | 33.63579 | -84.40935 | 1005 ft | 10 kts | 103° |
| 2026-05-07 00:21 | 33.63523 | -84.40910 | 1006 ft | 9 kts | 179° |
| 2026-05-07 00:21 | 33.63472 | -84.40942 | 1006 ft | 9 kts | 255° |
| 2026-05-07 00:21 | 33.63472 | -84.41226 | 1004 ft | 75 kts | 270° |
| 2026-05-07 00:22 | 33.63469 | -84.42190 | 1017 ft | 153 kts | 268° |
| 2026-05-07 00:22 | 33.63465 | -84.43567 | 1738 ft | 171 kts | 269° |
| 2026-05-07 00:22 | 33.63483 | -84.45003 | 2843 ft | 171 kts | 262° |
| 2026-05-07 00:22 | 33.63296 | -84.46442 | 3687 ft | 183 kts | 253° |
| 2026-05-07 00:23 | 33.62944 | -84.47985 | 4169 ft | 193 kts | 246° |
| 2026-05-07 00:23 | 33.62439 | -84.49488 | 4941 ft | 195 kts | 245° |
| 2026-05-07 00:23 | 33.61858 | -84.50980 | 5578 ft | 200 kts | 244° |
| 2026-05-07 00:23 | 33.61256 | -84.52472 | 6368 ft | 200 kts | 244° |
| 2026-05-07 00:24 | 33.60626 | -84.54023 | 6882 ft | 212 kts | 244° |
| 2026-05-07 00:24 | 33.59955 | -84.55645 | 7538 ft | 219 kts | 240° |
| 2026-05-07 00:24 | 33.58936 | -84.56996 | 8443 ft | 222 kts | 221° |
| 2026-05-07 00:24 | 33.57594 | -84.57972 | 9229 ft | 230 kts | 208° |
| 2026-05-07 00:25 | 33.56051 | -84.58449 | 10121 ft | 238 kts | 191° |
| 2026-05-07 00:25 | 33.54351 | -84.58490 | 10767 ft | 249 kts | 187° |
| 2026-05-07 00:25 | 33.52586 | -84.58484 | 11416 ft | 259 kts | 187° |
| 2026-05-07 00:25 | 33.50748 | -84.58476 | 12029 ft | 269 kts | 187° |
| 2026-05-07 00:26 | 33.48831 | -84.58253 | 12627 ft | 289 kts | 170° |
| 2026-05-07 00:26 | 33.46996 | -84.57039 | 13150 ft | 318 kts | 144° |
| 2026-05-07 00:26 | 33.45702 | -84.54776 | 13694 ft | 346 kts | 114° |
| 2026-05-07 00:26 | 33.45326 | -84.51857 | 14184 ft | 365 kts | 92° |
| 2026-05-07 00:27 | 33.45414 | -84.48773 | 14670 ft | 376 kts | 89° |
| 2026-05-07 00:27 | 33.45549 | -84.45595 | 15186 ft | 387 kts | 89° |
| 2026-05-07 00:27 | 33.45622 | -84.42336 | 15677 ft | 396 kts | 91° |
| 2026-05-07 00:27 | 33.45629 | -84.39000 | 16196 ft | 404 kts | 91° |
| 2026-05-07 00:28 | 33.45620 | -84.35616 | 16747 ft | 411 kts | 88° |
| 2026-05-07 00:28 | 33.46162 | -84.32232 | 17266 ft | 416 kts | 66° |
| 2026-05-07 00:28 | 33.47441 | -84.29121 | 17862 ft | 419 kts | 58° |
| 2026-05-07 00:28 | 33.48845 | -84.26040 | 18418 ft | 424 kts | 57° |
| 2026-05-07 00:29 | 33.50282 | -84.22933 | 18909 ft | 428 kts | 57° |
| 2026-05-07 00:29 | 33.51729 | -84.19789 | 19406 ft | 433 kts | 57° |
| 2026-05-07 00:30 | 33.56094 | -84.10122 | 20942 ft | 445 kts | 57° |
| 2026-05-07 00:30 | 33.57538 | -84.06882 | 21483 ft | 448 kts | 57° |
| 2026-05-07 00:30 | 33.59011 | -84.03569 | 22001 ft | 452 kts | 57° |
| 2026-05-07 00:30 | 33.60495 | -84.00228 | 22516 ft | 455 kts | 57° |
| 2026-05-07 00:31 | 33.61985 | -83.96871 | 23043 ft | 458 kts | 57° |
| 2026-05-07 00:31 | 33.63486 | -83.93485 | 23567 ft | 461 kts | 57° |
| 2026-05-07 00:31 | 33.64994 | -83.90081 | 24004 ft | 463 kts | 57° |
| 2026-05-07 00:31 | 33.66513 | -83.86649 | 24463 ft | 465 kts | 57° |
| 2026-05-07 00:32 | 33.68032 | -83.83212 | 24913 ft | 467 kts | 57° |
| 2026-05-07 00:32 | 33.69558 | -83.79760 | 25372 ft | 468 kts | 57° |
| 2026-05-07 00:32 | 33.71087 | -83.76294 | 25839 ft | 469 kts | 57° |
| 2026-05-07 00:32 | 33.72614 | -83.72830 | 26308 ft | 470 kts | 57° |
| 2026-05-07 00:33 | 33.74146 | -83.69353 | 26784 ft | 471 kts | 57° |
| 2026-05-07 00:33 | 33.75677 | -83.65876 | 27248 ft | 472 kts | 57° |
| 2026-05-07 00:33 | 33.77290 | -83.62440 | 27636 ft | 473 kts | 53° |
| 2026-05-07 00:33 | 33.79043 | -83.59092 | 28026 ft | 474 kts | 51° |
| 2026-05-07 00:34 | 33.80862 | -83.55776 | 28415 ft | 476 kts | 50° |
| 2026-05-07 00:34 | 33.82702 | -83.52456 | 28815 ft | 478 kts | 51° |
| 2026-05-07 00:34 | 33.84514 | -83.49164 | 29181 ft | 480 kts | 51° |
| 2026-05-07 00:34 | 33.86345 | -83.45798 | 29585 ft | 482 kts | 51° |
| 2026-05-07 00:35 | 33.88174 | -83.42402 | 29995 ft | 484 kts | 52° |
| 2026-05-07 00:35 | 33.89996 | -83.38996 | 30348 ft | 485 kts | 52° |
| 2026-05-07 00:35 | 33.91824 | -83.35565 | 30682 ft | 486 kts | 52° |
| 2026-05-07 00:35 | 33.93655 | -83.32121 | 31009 ft | 488 kts | 52° |
| 2026-05-07 00:36 | 33.95486 | -83.28675 | 31341 ft | 489 kts | 52° |
| 2026-05-07 00:36 | 33.97322 | -83.25216 | 31679 ft | 490 kts | 51° |
| 2026-05-07 00:36 | 33.98539 | -83.22925 | 31904 ft | 491 kts | 51° |
| 2026-05-07 00:36 | 34.01005 | -83.18277 | 32362 ft | 492 kts | 51° |
| 2026-05-07 00:37 | 34.02850 | -83.14795 | 32706 ft | 493 kts | 51° |
| 2026-05-07 00:37 | 34.04071 | -83.12490 | 32936 ft | 493 kts | 51° |
| 2026-05-07 00:37 | 34.05914 | -83.09006 | 33288 ft | 493 kts | 51° |
| 2026-05-07 00:37 | 34.07754 | -83.05525 | 33622 ft | 491 kts | 51° |
| 2026-05-07 00:38 | 34.09585 | -83.02056 | 33987 ft | 489 kts | 51° |
| 2026-05-07 00:38 | 34.11409 | -82.98601 | 34271 ft | 488 kts | 51° |
| 2026-05-07 00:38 | 34.13235 | -82.95138 | 34475 ft | 489 kts | 51° |
| 2026-05-07 00:38 | 34.15062 | -82.91658 | 34665 ft | 491 kts | 51° |
| 2026-05-07 00:39 | 34.16890 | -82.88162 | 34832 ft | 493 kts | 51° |
| 2026-05-07 00:39 | 34.18703 | -82.84687 | 34936 ft | 497 kts | 51° |
| 2026-05-07 00:39 | 34.22461 | -82.77479 | 34973 ft | 509 kts | 51° |
| 2026-05-07 00:40 | 34.26250 | -82.70196 | 34970 ft | 521 kts | 51° |
| 2026-05-07 00:40 | 34.30142 | -82.62696 | 34970 ft | 531 kts | 52° |
| 2026-05-07 00:41 | 34.34100 | -82.55048 | 34966 ft | 539 kts | 52° |
| 2026-05-07 00:41 | 34.38081 | -82.47338 | 34952 ft | 540 kts | 52° |
| 2026-05-07 00:42 | 34.42059 | -82.39620 | 34955 ft | 539 kts | 52° |
| 2026-05-07 00:42 | 34.45996 | -82.31856 | 34955 ft | 541 kts | 55° |
| 2026-05-07 00:43 | 34.49559 | -82.23871 | 34961 ft | 542 kts | 57° |
| 2026-05-07 00:43 | 34.53198 | -82.15887 | 34952 ft | 538 kts | 52° |
| 2026-05-07 00:44 | 34.57503 | -82.08532 | 34974 ft | 532 kts | 46° |
| 2026-05-07 00:44 | 34.62034 | -82.01442 | 34970 ft | 532 kts | 46° |
| 2026-05-07 00:45 | 34.66509 | -81.94290 | 34966 ft | 532 kts | 47° |
| 2026-05-07 00:45 | 34.70919 | -81.87047 | 34962 ft | 533 kts | 47° |
| 2026-05-07 00:46 | 34.75317 | -81.79753 | 34966 ft | 534 kts | 47° |
| 2026-05-07 00:46 | 34.79709 | -81.72460 | 34960 ft | 535 kts | 47° |
| 2026-05-07 00:47 | 34.84110 | -81.65153 | 34963 ft | 536 kts | 47° |
| 2026-05-07 00:47 | 34.88519 | -81.57819 | 34953 ft | 537 kts | 47° |
| 2026-05-07 00:48 | 34.92905 | -81.50510 | 34956 ft | 537 kts | 47° |
| 2026-05-07 00:48 | 34.97315 | -81.43143 | 34966 ft | 537 kts | 47° |
| 2026-05-07 00:49 | 35.01725 | -81.35761 | 34957 ft | 538 kts | 47° |
| 2026-05-07 00:49 | 35.06125 | -81.28380 | 34966 ft | 538 kts | 47° |
| 2026-05-07 00:50 | 35.10529 | -81.20977 | 34974 ft | 539 kts | 47° |
| 2026-05-07 00:50 | 35.14910 | -81.13595 | 34972 ft | 539 kts | 47° |
| 2026-05-07 00:51 | 35.19307 | -81.06174 | 34974 ft | 540 kts | 47° |
| 2026-05-07 00:51 | 35.23719 | -80.98722 | 34973 ft | 540 kts | 47° |
| 2026-05-07 00:52 | 35.28133 | -80.91258 | 34973 ft | 541 kts | 47° |
| 2026-05-07 00:52 | 35.32544 | -80.83782 | 34999 ft | 543 kts | 47° |
| 2026-05-07 00:53 | 35.36970 | -80.76262 | 35001 ft | 544 kts | 47° |
| 2026-05-07 00:53 | 35.41399 | -80.68717 | 35003 ft | 546 kts | 47° |
| 2026-05-07 00:54 | 35.45836 | -80.61145 | 34998 ft | 547 kts | 47° |
| 2026-05-07 00:54 | 35.50254 | -80.53587 | 34983 ft | 549 kts | 47° |
| 2026-05-07 00:55 | 35.54713 | -80.45944 | 34981 ft | 551 kts | 47° |
| 2026-05-07 00:55 | 35.59176 | -80.38276 | 34981 ft | 552 kts | 47° |
| 2026-05-07 00:56 | 35.63641 | -80.30588 | 34976 ft | 554 kts | 47° |
| 2026-05-07 00:56 | 35.68115 | -80.22866 | 34971 ft | 555 kts | 47° |
| 2026-05-07 00:57 | 35.72595 | -80.15113 | 34973 ft | 555 kts | 46° |
| 2026-05-07 00:57 | 35.77068 | -80.07361 | 34964 ft | 555 kts | 46° |
| 2026-05-07 00:58 | 35.81497 | -79.99658 | 34973 ft | 555 kts | 46° |
| 2026-05-07 00:58 | 35.85951 | -79.91885 | 34968 ft | 555 kts | 46° |
| 2026-05-07 00:59 | 35.92631 | -79.80214 | 34954 ft | 554 kts | 46° |
| 2026-05-07 01:00 | 35.97146 | -79.72505 | 34958 ft | 553 kts | 45° |
| 2026-05-07 01:00 | 36.01950 | -79.65186 | 34959 ft | 544 kts | 38° |
| 2026-05-07 01:01 | 36.07074 | -79.58336 | 34964 ft | 542 kts | 37° |
| 2026-05-07 01:01 | 36.12223 | -79.51504 | 34966 ft | 543 kts | 37° |
| 2026-05-07 01:02 | 36.17325 | -79.44588 | 34960 ft | 544 kts | 38° |
| 2026-05-07 01:02 | 36.22403 | -79.37613 | 34957 ft | 544 kts | 38° |
| 2026-05-07 01:03 | 36.27462 | -79.30638 | 34956 ft | 544 kts | 38° |
| 2026-05-07 01:03 | 36.32523 | -79.23654 | 34962 ft | 544 kts | 38° |
| 2026-05-07 01:04 | 36.37574 | -79.16677 | 34965 ft | 543 kts | 38° |
| 2026-05-07 01:04 | 36.40071 | -79.13215 | 34836 ft | 536 kts | 38° |
| 2026-05-07 01:04 | 36.42531 | -79.09805 | 34673 ft | 537 kts | 38° |
| 2026-05-07 01:04 | 36.45038 | -79.06338 | 34503 ft | 541 kts | 38° |
| 2026-05-07 01:05 | 36.47559 | -79.02850 | 34337 ft | 545 kts | 38° |
| 2026-05-07 01:05 | 36.50089 | -78.99341 | 34160 ft | 545 kts | 38° |
| 2026-05-07 01:05 | 36.52616 | -78.95826 | 33988 ft | 545 kts | 39° |
| 2026-05-07 01:05 | 36.55135 | -78.92316 | 33793 ft | 544 kts | 39° |
| 2026-05-07 01:06 | 36.57659 | -78.88796 | 33595 ft | 544 kts | 39° |
| 2026-05-07 01:06 | 36.60181 | -78.85276 | 33395 ft | 543 kts | 39° |
| 2026-05-07 01:06 | 36.62690 | -78.81770 | 33202 ft | 542 kts | 40° |
| 2026-05-07 01:06 | 36.65202 | -78.78258 | 33013 ft | 542 kts | 40° |
| 2026-05-07 01:07 | 36.67709 | -78.74749 | 32824 ft | 541 kts | 40° |
| 2026-05-07 01:07 | 36.70209 | -78.71246 | 32640 ft | 540 kts | 40° |
| 2026-05-07 01:07 | 36.72703 | -78.67750 | 32459 ft | 539 kts | 41° |
| 2026-05-07 01:07 | 36.75193 | -78.64257 | 32276 ft | 539 kts | 41° |
| 2026-05-07 01:08 | 36.77649 | -78.60808 | 32098 ft | 538 kts | 41° |
| 2026-05-07 01:08 | 36.80135 | -78.57312 | 31917 ft | 537 kts | 42° |
| 2026-05-07 01:08 | 36.82617 | -78.53818 | 31736 ft | 537 kts | 42° |
| 2026-05-07 01:08 | 36.85099 | -78.50319 | 31557 ft | 537 kts | 42° |
| 2026-05-07 01:09 | 36.87577 | -78.46821 | 31375 ft | 537 kts | 43° |
| 2026-05-07 01:09 | 36.90050 | -78.43327 | 31195 ft | 537 kts | 43° |
| 2026-05-07 01:09 | 36.92523 | -78.39829 | 31013 ft | 537 kts | 43° |
| 2026-05-07 01:09 | 36.95000 | -78.36321 | 30830 ft | 538 kts | 43° |
| 2026-05-07 01:10 | 36.97474 | -78.32814 | 30652 ft | 538 kts | 44° |
| 2026-05-07 01:10 | 36.99950 | -78.29301 | 30473 ft | 538 kts | 44° |
| 2026-05-07 01:10 | 37.02423 | -78.25788 | 30290 ft | 538 kts | 44° |
| 2026-05-07 01:10 | 37.04897 | -78.22269 | 30119 ft | 538 kts | 44° |
| 2026-05-07 01:11 | 37.07373 | -78.18744 | 29939 ft | 539 kts | 45° |
| 2026-05-07 01:11 | 37.09850 | -78.15213 | 29743 ft | 539 kts | 45° |
| 2026-05-07 01:11 | 37.12327 | -78.11677 | 29535 ft | 540 kts | 44° |
| 2026-05-07 01:11 | 37.14803 | -78.08140 | 29343 ft | 541 kts | 44° |
| 2026-05-07 01:12 | 37.17249 | -78.04642 | 29151 ft | 542 kts | 44° |
| 2026-05-07 01:12 | 37.19740 | -78.01078 | 28977 ft | 546 kts | 44° |
| 2026-05-07 01:12 | 37.22249 | -77.97485 | 28925 ft | 547 kts | 44° |
| 2026-05-07 01:13 | 37.27225 | -77.90338 | 28909 ft | 541 kts | 44° |
| 2026-05-07 01:13 | 37.32187 | -77.83200 | 28926 ft | 543 kts | 44° |
| 2026-05-07 01:14 | 37.37167 | -77.76024 | 28932 ft | 546 kts | 44° |
| 2026-05-07 01:14 | 37.42160 | -77.68811 | 28931 ft | 547 kts | 44° |
| 2026-05-07 01:15 | 37.47151 | -77.61581 | 28922 ft | 547 kts | 44° |
| 2026-05-07 01:15 | 37.52066 | -77.54439 | 28897 ft | 523 kts | 44° |
| 2026-05-07 01:15 | 37.54417 | -77.51017 | 28654 ft | 510 kts | 44° |
| 2026-05-07 01:16 | 37.56763 | -77.47688 | 28049 ft | 503 kts | 38° |
| 2026-05-07 01:16 | 37.59481 | -77.45055 | 27416 ft | 485 kts | 22° |
| 2026-05-07 01:16 | 37.62511 | -77.43409 | 26767 ft | 465 kts | 6° |
| 2026-05-07 01:16 | 37.65629 | -77.42467 | 26136 ft | 458 kts | 3° |
| 2026-05-07 01:17 | 37.68734 | -77.41615 | 25476 ft | 456 kts | 3° |
| 2026-05-07 01:17 | 37.71831 | -77.40733 | 24829 ft | 455 kts | 4° |
| 2026-05-07 01:17 | 37.74909 | -77.39804 | 24199 ft | 454 kts | 4° |
| 2026-05-07 01:17 | 37.77965 | -77.38855 | 23574 ft | 451 kts | 4° |
| 2026-05-07 01:18 | 37.80999 | -77.37908 | 22856 ft | 448 kts | 4° |
| 2026-05-07 01:18 | 37.84021 | -77.36970 | 22125 ft | 445 kts | 5° |
| 2026-05-07 01:18 | 37.87020 | -77.36041 | 21418 ft | 442 kts | 5° |
| 2026-05-07 01:18 | 37.90007 | -77.35116 | 20725 ft | 439 kts | 5° |
| 2026-05-07 01:19 | 37.92968 | -77.34203 | 20048 ft | 436 kts | 5° |
| 2026-05-07 01:19 | 37.95909 | -77.33299 | 19389 ft | 433 kts | 5° |
| 2026-05-07 01:19 | 37.97845 | -77.32704 | 18995 ft | 430 kts | 5° |
| 2026-05-07 01:19 | 38.00736 | -77.31814 | 18417 ft | 426 kts | 5° |
| 2026-05-07 01:20 | 38.03600 | -77.30932 | 17807 ft | 421 kts | 5° |
| 2026-05-07 01:20 | 38.07358 | -77.29773 | 16955 ft | 416 kts | 6° |
| 2026-05-07 01:20 | 38.09253 | -77.29183 | 16531 ft | 414 kts | 6° |
| 2026-05-07 01:20 | 38.12035 | -77.28309 | 15914 ft | 411 kts | 7° |
| 2026-05-07 01:21 | 38.14801 | -77.27438 | 15303 ft | 408 kts | 7° |
| 2026-05-07 01:21 | 38.17561 | -77.26569 | 14708 ft | 405 kts | 7° |
| 2026-05-07 01:21 | 38.20272 | -77.25716 | 14122 ft | 402 kts | 8° |
| 2026-05-07 01:21 | 38.22936 | -77.24784 | 13658 ft | 399 kts | 11° |
| 2026-05-07 01:22 | 38.25566 | -77.23770 | 13211 ft | 392 kts | 11° |
| 2026-05-07 01:22 | 38.28157 | -77.22752 | 12774 ft | 386 kts | 11° |
| 2026-05-07 01:22 | 38.30706 | -77.21763 | 12344 ft | 380 kts | 11° |
| 2026-05-07 01:22 | 38.33220 | -77.20803 | 11930 ft | 374 kts | 11° |
| 2026-05-07 01:23 | 38.35694 | -77.19865 | 11599 ft | 367 kts | 11° |
| 2026-05-07 01:23 | 38.38124 | -77.18946 | 11277 ft | 360 kts | 12° |
| 2026-05-07 01:23 | 38.40462 | -77.17823 | 11025 ft | 356 kts | 18° |
| 2026-05-07 01:23 | 38.42683 | -77.16546 | 10907 ft | 345 kts | 19° |
| 2026-05-07 01:24 | 38.44760 | -77.15074 | 10755 ft | 342 kts | 35° |
| 2026-05-07 01:24 | 38.46291 | -77.12796 | 10630 ft | 338 kts | 60° |
| 2026-05-07 01:24 | 38.47022 | -77.10003 | 10496 ft | 329 kts | 83° |
| 2026-05-07 01:24 | 38.47228 | -77.07137 | 10344 ft | 321 kts | 88° |
| 2026-05-07 01:25 | 38.47353 | -77.04324 | 10172 ft | 315 kts | 89° |
| 2026-05-07 01:25 | 38.47465 | -77.01555 | 9995 ft | 309 kts | 89° |
| 2026-05-07 01:25 | 38.47571 | -76.98835 | 9834 ft | 303 kts | 89° |
| 2026-05-07 01:25 | 38.47673 | -76.96174 | 9672 ft | 297 kts | 89° |
| 2026-05-07 01:26 | 38.47773 | -76.93556 | 9503 ft | 292 kts | 89° |
| 2026-05-07 01:26 | 38.47873 | -76.90993 | 9337 ft | 287 kts | 89° |
| 2026-05-07 01:26 | 38.47978 | -76.88477 | 9170 ft | 283 kts | 85° |
| 2026-05-07 01:26 | 38.48560 | -76.86085 | 8816 ft | 285 kts | 56° |
| 2026-05-07 01:27 | 38.49906 | -76.84277 | 8392 ft | 280 kts | 26° |
| 2026-05-07 01:27 | 38.51656 | -76.83473 | 8001 ft | 265 kts | 358° |
| 2026-05-07 01:27 | 38.53464 | -76.83459 | 7579 ft | 259 kts | 350° |
| 2026-05-07 01:27 | 38.55259 | -76.83577 | 7138 ft | 258 kts | 349° |
| 2026-05-07 01:28 | 38.57047 | -76.83711 | 6755 ft | 256 kts | 349° |
| 2026-05-07 01:28 | 38.58794 | -76.83949 | 6382 ft | 247 kts | 337° |
| 2026-05-07 01:28 | 38.60196 | -76.85016 | 6001 ft | 230 kts | 308° |
| 2026-05-07 01:28 | 38.61138 | -76.86616 | 5689 ft | 222 kts | 300° |
| 2026-05-07 01:29 | 38.61968 | -76.88259 | 5352 ft | 217 kts | 297° |
| 2026-05-07 01:29 | 38.62712 | -76.89916 | 5046 ft | 212 kts | 296° |
| 2026-05-07 01:29 | 38.63432 | -76.91545 | 4750 ft | 209 kts | 296° |
| 2026-05-07 01:29 | 38.64147 | -76.93148 | 4447 ft | 205 kts | 296° |
| 2026-05-07 01:30 | 38.64852 | -76.94720 | 4140 ft | 202 kts | 296° |
| 2026-05-07 01:30 | 38.65551 | -76.96269 | 3836 ft | 200 kts | 296° |
| 2026-05-07 01:30 | 38.66237 | -76.97789 | 3578 ft | 194 kts | 296° |
| 2026-05-07 01:30 | 38.66896 | -76.99246 | 3351 ft | 189 kts | 296° |
| 2026-05-07 01:31 | 38.67562 | -77.00678 | 3123 ft | 186 kts | 302° |
| 2026-05-07 01:31 | 38.68645 | -77.01609 | 2825 ft | 197 kts | 340° |
| 2026-05-07 01:31 | 38.69996 | -77.01979 | 2549 ft | 197 kts | 344° |
| 2026-05-07 01:31 | 38.71332 | -77.02307 | 2277 ft | 193 kts | 347° |
| 2026-05-07 01:32 | 38.72626 | -77.02503 | 2007 ft | 185 kts | 351° |
| 2026-05-07 01:32 | 38.73876 | -77.02651 | 1883 ft | 175 kts | 352° |
| 2026-05-07 01:32 | 38.75132 | -77.02766 | 1762 ft | 183 kts | 352° |
| 2026-05-07 01:32 | 38.76376 | -77.02887 | 1535 ft | 174 kts | 352° |
| 2026-05-07 01:33 | 38.77523 | -77.03001 | 1307 ft | 159 kts | 352° |
| 2026-05-07 01:33 | 38.78597 | -77.03111 | 1117 ft | 150 kts | 352° |
| 2026-05-07 01:33 | 38.79621 | -77.03216 | 919 ft | 147 kts | 353° |
| 2026-05-07 01:33 | 38.80652 | -77.03320 | 757 ft | 149 kts | 354° |
| 2026-05-07 01:34 | 38.81697 | -77.03429 | 550 ft | 154 kts | 354° |
| 2026-05-07 01:34 | 38.82779 | -77.03542 | 302 ft | 157 kts | 355° |
| 2026-05-07 01:34 | 38.83858 | -77.03647 | 98 ft | 154 kts | 355° |
| 2026-05-07 01:34 | 38.84869 | -77.03750 | 19 ft | 129 kts | 355° |
| 2026-05-07 01:35 | 38.85539 | -77.03811 | 22 ft | 66 kts | 354° |
| 2026-05-07 01:35 | 38.85854 | -77.03852 | 24 ft | 27 kts | 343° |
| 2026-05-07 01:35 | 38.85884 | -77.03982 | 23 ft | 15 kts | 203° |
| 2026-05-07 01:35 | 38.85783 | -77.03983 | 28 ft | 14 kts | 175° |
| 2026-05-07 01:36 | 38.85687 | -77.03973 | 28 ft | 14 kts | 175° |
| 2026-05-07 01:36 | 38.85595 | -77.03963 | 26 ft | 13 kts | 175° |
| 2026-05-07 01:36 | 38.85506 | -77.03953 | 22 ft | 13 kts | 175° |
| 2026-05-07 01:36 | 38.85419 | -77.03945 | 21 ft | 13 kts | 177° |
| 2026-05-07 01:37 | 38.85341 | -77.03986 | 20 ft | 13 kts | 241° |
| 2026-05-07 01:37 | 38.85347 | -77.04091 | 23 ft | 10 kts | 317° |
| 2026-05-07 01:37 | 38.85369 | -77.04111 | 25 ft | 1 kts | 326° |